Time;durP1;ratioP1;P1;durP2;ratioP2;P2;SDS_P1;SDS_P2;PMS_P1;PMS_P2;Temp;Humidity;BMP_temperature;BMP_pressure;BME280_temperature;BME280_humidity;BME280_pressure;Samples;Min_cycle;Max_cycle;Signal;HPM_P1;HPM_P2
2023/05/26 00:02:07;;;;;;;14.18;4.10;;;;;;;15.24;55.88;102313.63;4971218;28;20038;-36
2023/05/26 00:04:33;;;;;;;26.08;5.55;;;;;;;14.94;56.41;102312.47;4973424;28;20058;-37
2023/05/26 00:06:58;;;;;;;17.25;4.53;;;;;;;14.78;56.71;102312.41;4969100;28;20251;-36
2023/05/26 00:09:25;;;;;;;18.38;5.32;;;;;;;14.75;56.76;102315.22;4976827;28;20064;-37
2023/05/26 00:11:51;;;;;;;14.02;4.63;;;;;;;14.63;56.83;102314.00;4970990;28;20030;-36
2023/05/26 00:14:17;;;;;;;19.85;4.47;;;;;;;14.51;57.22;102309.31;4967046;28;20121;-36
2023/05/26 00:16:43;;;;;;;24.25;5.13;;;;;;;14.46;57.30;102312.19;4965453;28;20026;-37
2023/05/26 00:19:09;;;;;;;20.58;4.47;;;;;;;14.47;57.31;102305.09;4970803;28;22305;-36
2023/05/26 00:21:36;;;;;;;24.23;5.10;;;;;;;14.53;57.04;102302.16;4970207;28;20030;-36
2023/05/26 00:24:02;;;;;;;21.15;4.70;;;;;;;14.61;57.03;102289.38;4974730;28;20030;-36
2023/05/26 00:26:27;;;;;;;25.80;4.15;;;;;;;14.65;56.93;102298.03;4966443;28;20049;-36
2023/05/26 00:28:53;;;;;;;24.33;5.45;;;;;;;14.67;56.96;102298.78;4966111;28;20034;-36
2023/05/26 00:31:18;;;;;;;20.35;4.78;;;;;;;14.64;56.78;102299.81;4973002;28;20039;-36
2023/05/26 00:33:43;;;;;;;18.65;5.65;;;;;;;14.51;57.17;102290.78;4961317;28;20413;-36
2023/05/26 00:36:09;;;;;;;19.17;5.65;;;;;;;14.50;57.47;102306.75;4964331;28;20039;-36
2023/05/26 00:38:34;;;;;;;18.20;4.72;;;;;;;14.41;57.52;102314.19;4966099;28;20483;-37
2023/05/26 00:41:00;;;;;;;18.13;4.55;;;;;;;14.25;57.74;102307.94;4973131;28;20022;-36
2023/05/26 00:43:25;;;;;;;20.38;4.70;;;;;;;14.19;57.92;102314.38;4975788;28;20053;-36
2023/05/26 00:45:51;;;;;;;14.80;4.57;;;;;;;14.15;57.87;102308.38;4968753;28;20037;-36
2023/05/26 00:48:16;;;;;;;8.23;2.67;;;;;;;14.11;57.72;102311.25;4968462;28;20067;-37
2023/05/26 00:50:42;;;;;;;15.88;4.78;;;;;;;13.99;58.16;102321.47;4970552;28;20042;-36
2023/05/26 00:53:08;;;;;;;15.85;4.43;;;;;;;13.95;58.01;102316.41;4970361;28;20046;-36
2023/05/26 00:55:33;;;;;;;15.40;4.65;;;;;;;13.98;57.93;102310.97;4960922;28;20042;-36
2023/05/26 00:57:59;;;;;;;18.48;5.13;;;;;;;14.07;57.61;102305.22;4968296;28;20041;-36
2023/05/26 01:00:26;;;;;;;18.85;3.63;;;;;;;14.09;57.75;102307.81;4967292;28;20113;-36
2023/05/26 01:02:56;;;;;;;16.65;4.47;;;;;;;14.06;57.91;102313.25;4967646;28;20057;-37
2023/05/26 01:05:22;;;;;;;18.42;3.97;;;;;;;14.02;57.91;102312.56;4964134;28;20120;-36
2023/05/26 01:07:48;;;;;;;22.00;5.60;;;;;;;13.99;57.76;102313.53;4967805;28;20080;-36
2023/05/26 01:10:13;;;;;;;16.98;5.03;;;;;;;13.93;57.90;102311.19;4972335;28;20046;-36
2023/05/26 01:12:49;;;;;;;17.73;4.13;;;;;;;13.79;58.27;102316.28;4972391;28;20097;-36
2023/05/26 01:15:36;;;;;;;34.72;5.68;;;;;;;13.64;58.63;102308.13;4955447;28;20456;-36
2023/05/26 01:18:13;;;;;;;24.23;4.68;;;;;;;13.51;58.91;102307.81;4963145;28;20046;-36
2023/05/26 01:20:48;;;;;;;15.48;4.85;;;;;;;13.46;58.83;102308.94;4970082;28;20417;-36
2023/05/26 01:23:29;;;;;;;11.18;3.42;;;;;;;13.33;58.89;102300.66;4970596;28;20034;-36
2023/05/26 01:26:06;;;;;;;19.10;4.63;;;;;;;13.22;59.36;102306.44;4967793;28;20033;-36
2023/05/26 01:28:35;;;;;;;21.08;5.05;;;;;;;13.25;58.91;102301.00;4967887;28;20030;-36
2023/05/26 01:31:01;;;;;;;15.32;4.47;;;;;;;13.22;59.14;102306.44;4968423;28;20061;-37
2023/05/26 01:33:27;;;;;;;16.90;4.93;;;;;;;13.30;58.95;102311.41;4978746;28;20049;-36
2023/05/26 01:35:52;;;;;;;21.50;5.07;;;;;;;13.33;59.08;102309.47;4975759;28;20255;-37
2023/05/26 01:38:18;;;;;;;21.05;5.53;;;;;;;13.38;58.89;102312.78;4977130;28;20046;-36
2023/05/26 01:40:47;;;;;;;18.40;4.07;;;;;;;13.38;59.11;102307.47;4962198;28;20026;-37
2023/05/26 01:43:21;;;;;;;12.88;4.28;;;;;;;13.41;58.92;102311.78;4966003;28;20038;-36
2023/05/26 01:45:54;;;;;;;23.33;5.38;;;;;;;13.40;59.05;102308.28;4964113;28;20080;-36
2023/05/26 01:48:20;;;;;;;27.63;4.40;;;;;;;13.51;58.83;102314.88;4971684;28;20524;-38
2023/05/26 01:50:54;;;;;;;22.55;5.95;;;;;;;13.44;59.18;102314.31;4964186;28;20040;-36
2023/05/26 01:53:23;;;;;;;27.98;5.28;;;;;;;13.36;59.38;102317.25;4964932;28;20031;-36
2023/05/26 01:55:54;;;;;;;24.27;5.45;;;;;;;13.34;59.25;102311.19;4973458;28;20044;-35
2023/05/26 01:58:22;;;;;;;23.70;4.93;;;;;;;13.38;59.28;102317.19;4966276;28;20037;-35
2023/05/26 02:00:47;;;;;;;18.63;4.72;;;;;;;13.42;58.98;102316.16;4967134;28;20115;-35
2023/05/26 02:03:13;;;;;;;15.90;4.47;;;;;;;13.39;59.05;102314.47;4959256;28;20148;-38
2023/05/26 02:05:39;;;;;;;19.67;3.90;;;;;;;13.25;59.50;102320.38;4966977;28;20034;-35
2023/05/26 02:08:06;;;;;;;17.15;5.40;;;;;;;13.15;59.71;102323.47;4969605;28;20077;-35
2023/05/26 02:10:31;;;;;;;13.77;4.75;;;;;;;13.13;59.62;102315.63;4969070;28;20445;-37
2023/05/26 02:12:57;;;;;;;22.20;4.13;;;;;;;13.13;59.61;102318.28;4973430;28;20045;-35
2023/05/26 02:15:22;;;;;;;11.43;2.85;;;;;;;13.22;59.66;102325.78;4966427;28;20034;-36
2023/05/26 02:17:48;;;;;;;26.33;6.78;;;;;;;13.30;59.04;102320.16;4961484;28;20039;-36
2023/05/26 02:20:15;;;;;;;11.90;3.03;;;;;;;13.33;59.08;102322.69;4961387;28;20065;-37
2023/05/26 02:22:40;;;;;;;15.18;4.72;;;;;;;13.35;58.99;102325.25;4966959;28;20022;-39
2023/05/26 02:25:06;;;;;;;19.25;4.97;;;;;;;13.35;58.65;102323.47;4974843;28;20071;-38
2023/05/26 02:27:32;;;;;;;14.25;4.57;;;;;;;13.30;58.79;102320.16;4965858;28;20036;-36
2023/05/26 02:29:57;;;;;;;23.60;4.97;;;;;;;13.25;59.02;102319.50;4967437;28;20070;-36
2023/05/26 02:32:23;;;;;;;16.77;5.43;;;;;;;13.30;58.82;102314.88;4973040;28;20088;-35
2023/05/26 02:34:49;;;;;;;17.55;4.53;;;;;;;13.29;58.71;102323.72;4963165;28;20046;-36
2023/05/26 02:37:17;;;;;;;18.95;6.20;;;;;;;13.32;58.70;102317.44;4974293;28;20035;-36
2023/05/26 02:39:42;;;;;;;28.50;6.55;;;;;;;13.34;58.44;102321.75;4960882;28;20046;-38
2023/05/26 02:42:08;;;;;;;17.55;4.97;;;;;;;13.29;58.54;102322.88;4973773;28;20045;-35
2023/05/26 02:44:33;;;;;;;17.48;5.07;;;;;;;13.22;58.70;102322.31;4967808;28;20085;-38
2023/05/26 02:46:59;;;;;;;20.90;4.20;;;;;;;13.10;59.04;102324.53;4967440;28;20037;-36
2023/05/26 02:49:24;;;;;;;22.17;4.60;;;;;;;13.08;59.05;102325.53;4974174;28;20042;-36
2023/05/26 02:51:50;;;;;;;13.95;4.78;;;;;;;13.02;59.07;102326.66;4961798;28;20549;-36
2023/05/26 02:54:15;;;;;;;19.95;4.85;;;;;;;13.01;59.02;102324.09;4963331;28;20042;-36
2023/05/26 02:56:40;;;;;;;15.25;4.22;;;;;;;13.06;59.02;102328.25;4963499;28;20022;-39
2023/05/26 02:59:06;;;;;;;19.83;5.65;;;;;;;13.00;59.03;102323.22;4966770;28;20073;-38
2023/05/26 03:01:32;;;;;;;15.75;4.10;;;;;;;12.87;59.37;102329.94;4968083;28;20034;-35
2023/05/26 03:03:57;;;;;;;17.23;5.30;;;;;;;12.86;59.35;102325.59;4968551;28;20045;-37
2023/05/26 03:06:23;;;;;;;19.08;4.28;;;;;;;12.89;59.36;102328.94;4969396;28;20061;-39
2023/05/26 03:08:49;;;;;;;18.40;4.28;;;;;;;12.95;59.10;102322.53;4963681;28;20092;-36
2023/05/26 03:11:14;;;;;;;14.45;4.10;;;;;;;12.97;59.05;102328.63;4966104;28;20026;-36
2023/05/26 03:13:40;;;;;;;19.08;4.50;;;;;;;12.88;59.44;102334.31;4961119;28;20096;-36
2023/05/26 03:16:06;;;;;;;16.88;4.15;;;;;;;12.82;59.33;102335.44;4954938;28;20084;-39
2023/05/26 03:18:32;;;;;;;21.58;6.43;;;;;;;12.79;59.51;102336.41;4969194;28;20489;-35
2023/05/26 03:20:58;;;;;;;18.40;4.15;;;;;;;12.76;59.56;102335.69;4968518;28;20030;-36
2023/05/26 03:23:24;;;;;;;25.70;5.38;;;;;;;12.67;59.64;102347.47;4963719;28;20118;-36
2023/05/26 03:25:50;;;;;;;21.92;4.72;;;;;;;12.42;60.21;102344.97;4964338;28;20073;-36
2023/05/26 03:28:16;;;;;;;23.23;5.93;;;;;;;12.34;60.37;102350.53;4966953;28;20094;-35
2023/05/26 03:30:41;;;;;;;21.90;5.18;;;;;;;12.26;60.81;102347.38;4960866;28;20072;-36
2023/05/26 03:33:07;;;;;;;13.48;3.80;;;;;;;12.19;60.59;102344.94;4961501;28;20030;-37
2023/05/26 03:35:33;;;;;;;17.83;4.53;;;;;;;12.32;60.37;102352.41;4968459;28;20038;-35
2023/05/26 03:37:58;;;;;;;19.85;4.90;;;;;;;12.40;60.17;102347.69;4965572;28;20031;-35
2023/05/26 03:40:24;;;;;;;24.35;4.88;;;;;;;12.53;60.18;102350.69;4974820;28;20035;-36
2023/05/26 03:42:49;;;;;;;16.70;3.83;;;;;;;12.55;59.87;102356.78;4969291;28;20038;-35
2023/05/26 03:45:15;;;;;;;17.80;4.50;;;;;;;12.55;60.08;102353.25;4965336;28;20046;-39
2023/05/26 03:47:41;;;;;;;18.25;4.38;;;;;;;12.53;59.94;102360.38;4967724;28;20057;-38
2023/05/26 03:50:07;;;;;;;20.75;4.47;;;;;;;12.48;60.13;102358.78;4968422;28;20125;-39
2023/05/26 03:52:32;;;;;;;33.38;7.75;;;;;;;12.45;60.33;102358.03;4957379;28;20034;-35
2023/05/26 03:54:58;;;;;;;22.70;5.80;;;;;;;12.54;60.07;102354.19;4970657;28;20035;-35
2023/05/26 03:57:24;;;;;;;17.05;4.03;;;;;;;12.53;60.09;102353.34;4971048;28;20424;-37
2023/05/26 03:59:49;;;;;;;17.75;4.05;;;;;;;12.48;60.26;102353.50;4969956;28;20096;-38
2023/05/26 04:02:15;;;;;;;19.45;4.57;;;;;;;12.43;60.48;102355.47;4966208;28;20045;-38
2023/05/26 04:04:41;;;;;;;12.57;3.92;;;;;;;12.49;60.46;102357.84;4968071;28;20034;-38
2023/05/26 04:07:06;;;;;;;17.67;4.97;;;;;;;12.55;60.41;102358.53;4968436;28;21198;-38
2023/05/26 04:09:32;;;;;;;25.25;5.85;;;;;;;12.52;60.30;102354.25;4970019;28;20038;-35
2023/05/26 04:11:58;;;;;;;19.50;4.88;;;;;;;12.51;60.48;102355.19;4972570;28;20493;-37
2023/05/26 04:14:23;;;;;;;18.73;4.53;;;;;;;12.60;60.17;102361.88;4968241;28;20030;-40
2023/05/26 04:16:49;;;;;;;20.65;5.18;;;;;;;12.64;60.24;102363.44;4969806;28;20038;-35
2023/05/26 04:19:14;;;;;;;12.77;4.22;;;;;;;12.70;60.15;102360.56;4967988;28;20097;-38
2023/05/26 04:21:40;;;;;;;22.13;5.68;;;;;;;12.81;60.13;102366.25;4974158;28;20030;-36
2023/05/26 04:24:06;;;;;;;17.02;4.35;;;;;;;12.84;60.03;102369.69;4969248;28;20110;-39
2023/05/26 04:26:34;;;;;;;19.30;6.18;;;;;;;12.86;60.00;102368.69;4965749;28;20030;-36
2023/05/26 04:29:00;;;;;;;14.52;4.72;;;;;;;12.85;60.25;102376.69;4971173;28;20038;-37
2023/05/26 04:31:29;;;;;;;20.67;4.38;;;;;;;12.75;60.49;102374.44;4960235;28;20034;-36
2023/05/26 04:33:57;;;;;;;26.40;4.55;;;;;;;12.64;60.73;102376.63;4971963;28;20096;-36
2023/05/26 04:36:24;;;;;;;18.15;4.13;;;;;;;12.55;61.05;102379.66;4965660;28;20069;-36
2023/05/26 04:38:49;;;;;;;24.85;4.75;;;;;;;12.51;61.11;102381.56;4951491;28;20037;-36
2023/05/26 04:41:16;;;;;;;20.88;5.75;;;;;;;12.52;60.94;102380.66;4961104;28;20058;-39
2023/05/26 04:43:43;;;;;;;20.38;4.78;;;;;;;12.59;60.93;102376.00;4969744;28;20545;-35
2023/05/26 04:46:10;;;;;;;20.63;5.20;;;;;;;12.62;61.01;102386.44;4963179;28;20041;-39
2023/05/26 04:48:37;;;;;;;20.08;4.97;;;;;;;12.64;60.87;102384.56;4965957;28;20038;-36
2023/05/26 04:51:03;;;;;;;18.92;5.35;;;;;;;12.64;61.07;102387.22;4969765;28;20033;-39
2023/05/26 04:53:28;;;;;;;17.92;4.40;;;;;;;12.64;60.96;102393.38;4967522;28;20026;-36
2023/05/26 04:55:54;;;;;;;20.88;4.10;;;;;;;12.70;60.91;102389.63;4967200;28;20030;-39
2023/05/26 04:58:19;;;;;;;21.00;5.18;;;;;;;12.72;61.16;102402.75;4973158;28;20056;-37
2023/05/26 05:00:44;;;;;;;17.83;4.53;;;;;;;12.74;60.98;102396.50;4973243;28;20445;-36
2023/05/26 05:03:10;;;;;;;21.55;4.63;;;;;;;12.76;60.98;102394.66;4956578;28;25490;-37
2023/05/26 05:05:35;;;;;;;16.40;4.90;;;;;;;12.78;61.18;102403.34;4960699;28;20074;-35
2023/05/26 05:08:01;;;;;;;14.38;4.30;;;;;;;12.83;61.14;102399.69;4961635;28;20072;-35
2023/05/26 05:10:26;;;;;;;13.70;3.92;;;;;;;12.86;60.94;102396.91;4969688;28;20753;-35
2023/05/26 05:12:53;;;;;;;16.63;4.85;;;;;;;12.89;61.13;102395.00;4975614;28;20052;-35
2023/05/26 05:18:24;;;;;;;20.95;4.10;;;;;;;12.83;61.27;102400.56;5066564;27;1333779;-39
2023/05/26 05:20:50;;;;;;;18.90;4.93;;;;;;;12.88;61.12;102397.72;5083871;28;20100;-39
2023/05/26 05:23:15;;;;;;;25.80;5.20;;;;;;;12.98;61.16;102398.19;5073004;27;20035;-39
2023/05/26 05:25:44;;;;;;;22.60;6.28;;;;;;;13.07;61.14;102400.44;5084626;27;20030;-39
2023/05/26 05:28:10;;;;;;;22.92;5.32;;;;;;;13.21;61.71;102399.88;5080415;28;20028;-40
2023/05/26 05:30:35;;;;;;;20.95;4.45;;;;;;;13.22;61.45;102401.59;5065074;28;20032;-39
2023/05/26 05:33:01;;;;;;;17.55;2.72;;;;;;;13.19;61.72;102399.94;5091146;28;20071;-39
2023/05/26 05:35:26;;;;;;;18.25;4.88;;;;;;;13.22;61.66;102409.53;5056415;28;20036;-39
2023/05/26 05:37:56;;;;;;;17.52;4.57;;;;;;;13.35;61.56;102407.19;5072980;28;20040;-40
2023/05/26 05:40:22;;;;;;;16.27;4.43;;;;;;;13.44;61.25;102412.16;5086595;28;20494;-39
2023/05/26 05:42:47;;;;;;;26.95;5.63;;;;;;;13.52;61.58;102417.09;5078199;28;20032;-39
2023/05/26 05:45:12;;;;;;;14.80;4.28;;;;;;;13.62;61.46;102414.88;5063469;28;20082;-40
2023/05/26 05:47:38;;;;;;;16.05;4.45;;;;;;;13.69;61.06;102417.19;5041370;28;20062;-39
2023/05/26 05:50:04;;;;;;;25.75;5.38;;;;;;;13.80;61.12;102423.81;5073853;28;20067;-39
2023/05/26 05:52:29;;;;;;;22.95;4.43;;;;;;;13.86;60.42;102415.59;5067243;28;20194;-39
2023/05/26 05:54:55;;;;;;;21.73;4.07;;;;;;;13.86;60.66;102424.41;5075956;28;20036;-39
2023/05/26 05:57:20;;;;;;;18.05;4.22;;;;;;;13.87;60.09;102415.53;5062144;28;20027;-40
2023/05/26 05:59:46;;;;;;;27.25;5.10;;;;;;;13.91;60.09;102421.53;5077173;28;20115;-39
2023/05/26 06:02:11;;;;;;;19.02;4.50;;;;;;;13.88;60.13;102421.66;5089797;28;20051;-39
2023/05/26 06:04:37;;;;;;;19.73;5.72;;;;;;;13.93;60.00;102424.97;5064623;28;20043;-39
2023/05/26 06:07:02;;;;;;;27.63;5.75;;;;;;;13.96;59.89;102423.97;5058409;28;20062;-40
2023/05/26 06:09:28;;;;;;;24.85;4.57;;;;;;;14.00;59.76;102426.41;5055357;28;20432;-39
2023/05/26 06:11:53;;;;;;;21.70;5.68;;;;;;;14.02;59.72;102431.66;5073445;28;20032;-40
2023/05/26 06:14:19;;;;;;;19.52;5.82;;;;;;;14.06;59.66;102435.00;5057737;28;20028;-40
2023/05/26 06:16:44;;;;;;;26.55;6.10;;;;;;;14.10;59.54;102436.59;5070789;28;20181;-40
2023/05/26 06:19:10;;;;;;;29.40;7.20;;;;;;;14.12;59.23;102437.38;5087191;28;20675;-40
2023/05/26 06:21:35;;;;;;;30.20;3.83;;;;;;;14.09;59.48;102442.81;5064657;28;20134;-40
2023/05/26 06:24:01;;;;;;;22.58;3.92;;;;;;;14.07;59.40;102445.50;5066064;28;20028;-40
2023/05/26 06:26:26;;;;;;;23.73;4.90;;;;;;;14.05;59.32;102443.88;5049658;28;20028;-40
2023/05/26 06:28:52;;;;;;;28.55;4.63;;;;;;;14.05;59.47;102450.03;5070691;28;20042;-40
2023/05/26 06:31:17;;;;;;;20.92;4.07;;;;;;;14.03;59.49;102465.97;5048594;28;20036;-40
2023/05/26 06:33:43;;;;;;;18.10;4.53;;;;;;;14.06;59.53;102456.19;5045192;28;20184;-40
2023/05/26 06:36:10;;;;;;;16.10;4.57;;;;;;;14.03;59.08;102450.09;5063948;28;20024;-40
2023/05/26 06:38:35;;;;;;;22.85;6.18;;;;;;;14.08;59.10;102454.31;5048722;28;20077;-40
2023/05/26 06:41:01;;;;;;;31.13;5.13;;;;;;;14.07;58.90;102453.44;5032176;28;20024;-40
2023/05/26 06:43:26;;;;;;;18.60;5.07;;;;;;;14.05;58.88;102451.81;5047823;28;20051;-40
2023/05/26 06:45:52;;;;;;;20.30;4.70;;;;;;;14.09;58.66;102456.91;5024851;28;20074;-40
2023/05/26 06:48:17;;;;;;;17.70;4.57;;;;;;;14.13;58.74;102457.63;5037505;28;20032;-39
2023/05/26 06:50:43;;;;;;;19.88;3.92;;;;;;;14.14;58.70;102452.25;5037640;28;20041;-39
2023/05/26 06:53:08;;;;;;;24.25;4.57;;;;;;;14.20;58.57;102452.91;5023007;28;20027;-39
2023/05/26 06:55:33;;;;;;;25.50;4.80;;;;;;;14.22;58.41;102454.56;5035114;28;20035;-39
2023/05/26 06:57:59;;;;;;;26.98;5.63;;;;;;;14.27;58.46;102456.97;5070719;28;20036;-39
2023/05/26 07:00:25;;;;;;;18.98;4.60;;;;;;;14.29;58.30;102461.28;5052738;28;20043;-39
2023/05/26 07:02:50;;;;;;;24.50;3.88;;;;;;;14.31;57.76;102462.06;5052760;28;20031;-39
2023/05/26 07:05:15;;;;;;;22.23;5.22;;;;;;;14.36;57.60;102458.34;5034097;28;20542;-40
2023/05/26 07:07:41;;;;;;;15.02;3.70;;;;;;;14.36;57.28;102464.53;5039295;28;20043;-39
2023/05/26 07:10:07;;;;;;;20.35;4.82;;;;;;;14.30;57.02;102470.94;5045654;28;20893;-39
2023/05/26 07:12:32;;;;;;;14.20;4.00;;;;;;;14.34;56.99;102471.69;5061171;28;20060;-40
2023/05/26 07:14:58;;;;;;;20.30;3.78;;;;;;;14.35;56.33;102472.53;5044366;28;20056;-39
2023/05/26 07:17:23;;;;;;;31.13;5.10;;;;;;;14.39;56.46;102480.25;5050886;28;20032;-40
2023/05/26 07:19:49;;;;;;;22.63;4.88;;;;;;;14.42;56.14;102473.97;5031257;28;20045;-39
2023/05/26 07:22:14;;;;;;;22.40;4.88;;;;;;;14.44;55.83;102480.06;5043236;28;20135;-39
2023/05/26 07:24:40;;;;;;;24.55;4.70;;;;;;;14.43;56.03;102481.81;5054779;28;20054;-39
2023/05/26 07:27:06;;;;;;;25.45;5.38;;;;;;;14.45;55.82;102479.09;5039242;28;20107;-39
2023/05/26 07:29:33;;;;;;;22.42;4.03;;;;;;;14.48;55.87;102489.56;5023131;28;20048;-39
2023/05/26 07:31:59;;;;;;;27.52;5.20;;;;;;;14.50;55.65;102490.34;5062352;28;20518;-39
2023/05/26 07:34:24;;;;;;;25.52;4.88;;;;;;;14.49;55.35;102504.53;5041956;28;20123;-40
2023/05/26 07:36:49;;;;;;;29.88;5.10;;;;;;;14.48;54.98;102494.84;5019172;28;20049;-40
2023/05/26 07:39:15;;;;;;;15.55;3.78;;;;;;;14.52;54.85;102496.44;5013274;28;20031;-41
2023/05/26 07:41:41;;;;;;;30.02;4.75;;;;;;;14.57;54.62;102502.38;5036147;28;20047;-38
2023/05/26 07:44:07;;;;;;;20.17;4.10;;;;;;;14.55;54.29;102490.13;5034483;28;20558;-41
2023/05/26 07:46:32;;;;;;;24.70;3.92;;;;;;;14.63;54.44;102494.13;5033030;28;20482;-41
2023/05/26 07:48:58;;;;;;;26.17;3.85;;;;;;;14.64;54.41;102495.84;5039298;28;20066;-39
2023/05/26 07:51:23;;;;;;;16.73;3.85;;;;;;;14.68;54.07;102495.75;5062981;28;20032;-38
2023/05/26 07:53:49;;;;;;;20.13;4.43;;;;;;;14.66;53.60;102495.81;5034124;28;20039;-38
2023/05/26 07:56:14;;;;;;;28.95;4.10;;;;;;;14.58;53.50;102490.88;5022180;28;20403;-39
2023/05/26 07:58:40;;;;;;;13.55;4.05;;;;;;;14.57;53.45;102485.63;5035235;28;20032;-38
2023/05/26 08:01:06;;;;;;;30.58;4.03;;;;;;;14.58;53.17;102492.63;5038759;28;20119;-40
2023/05/26 08:03:33;;;;;;;24.13;4.63;;;;;;;14.62;53.47;102484.47;5029160;28;20054;-39
2023/05/26 08:05:58;;;;;;;23.98;3.83;;;;;;;14.67;53.12;102488.69;5056587;28;20035;-40
2023/05/26 08:08:24;;;;;;;24.42;5.18;;;;;;;14.68;53.06;102506.34;5050913;28;20081;-38
2023/05/26 08:10:49;;;;;;;27.75;4.28;;;;;;;14.69;52.91;102489.53;5067518;28;20059;-38
2023/05/26 08:13:15;;;;;;;16.73;3.42;;;;;;;14.71;52.63;102500.91;5037625;28;20397;-39
2023/05/26 08:15:40;;;;;;;23.90;3.92;;;;;;;14.73;52.54;102488.47;5054243;28;20039;-39
2023/05/26 08:18:06;;;;;;;20.65;3.97;;;;;;;14.76;52.55;102493.59;5040552;28;20119;-39
2023/05/26 08:20:31;;;;;;;17.83;4.40;;;;;;;14.79;52.57;102493.44;5057568;28;20161;-39
2023/05/26 08:22:58;;;;;;;25.67;6.40;;;;;;;14.82;52.61;102493.31;5039969;28;20797;-39
2023/05/26 08:25:24;;;;;;;22.42;4.00;;;;;;;14.86;52.25;102486.94;5047713;28;20117;-39
2023/05/26 08:27:49;;;;;;;27.58;4.40;;;;;;;14.93;52.39;102485.69;5052736;28;21112;-39
2023/05/26 08:30:15;;;;;;;16.60;4.15;;;;;;;15.00;52.34;102485.41;5066096;28;20055;-39
2023/05/26 08:32:40;;;;;;;21.95;3.78;;;;;;;14.99;52.20;102489.81;5044117;28;20028;-39
2023/05/26 08:35:06;;;;;;;27.75;5.40;;;;;;;15.03;52.23;102482.59;5072407;28;20032;-39
2023/05/26 08:37:32;;;;;;;25.45;4.07;;;;;;;15.11;52.50;102485.72;5037518;28;20024;-39
2023/05/26 08:39:57;;;;;;;26.83;4.28;;;;;;;15.18;52.54;102478.31;5049197;28;20023;-39
2023/05/26 08:42:30;;;;;;;24.55;4.03;;;;;;;15.20;52.15;102476.47;5037197;28;20039;-39
2023/05/26 08:44:59;;;;;;;15.18;3.60;;;;;;;15.18;51.68;102481.84;5051975;28;20066;-39
2023/05/26 08:47:26;;;;;;;25.30;5.65;;;;;;;15.24;51.31;102484.19;5045178;28;20044;-39
2023/05/26 08:50:02;;;;;;;23.98;4.78;;;;;;;15.32;51.49;102475.84;5046409;28;20162;-39
2023/05/26 08:52:28;;;;;;;27.20;5.25;;;;;;;15.34;51.82;102467.81;5061476;28;21008;-39
2023/05/26 08:54:54;;;;;;;14.18;3.85;;;;;;;15.31;51.78;102481.22;5070323;28;20027;-39
2023/05/26 08:57:20;;;;;;;25.98;4.32;;;;;;;15.34;51.59;102481.94;5049072;28;20016;-39
2023/05/26 08:59:47;;;;;;;19.13;4.50;;;;;;;15.35;51.49;102477.50;5031866;28;20044;-39
2023/05/26 09:02:12;;;;;;;22.50;4.38;;;;;;;15.37;51.48;102462.34;5068604;28;20185;-39
2023/05/26 09:04:38;;;;;;;23.52;4.88;;;;;;;15.40;51.20;102478.09;5047845;28;20190;-39
2023/05/26 09:07:08;;;;;;;22.55;4.15;;;;;;;15.34;51.04;102479.28;5063531;28;20020;-39
2023/05/26 09:09:34;;;;;;;22.67;3.90;;;;;;;15.46;50.59;102474.28;5028288;28;20355;-39
2023/05/26 09:11:59;;;;;;;15.38;4.25;;;;;;;15.50;50.24;102489.13;5032096;28;20124;-39
2023/05/26 09:14:25;;;;;;;27.05;5.22;;;;;;;15.52;50.24;102492.53;5050658;28;20055;-39
2023/05/26 09:16:52;;;;;;;25.40;4.38;;;;;;;15.47;49.71;102502.53;5037352;28;20466;-39
2023/05/26 09:19:18;;;;;;;21.70;5.28;;;;;;;15.45;49.55;102507.91;5054581;28;20049;-39
2023/05/26 09:21:48;;;;;;;25.50;4.68;;;;;;;15.43;49.59;102503.63;5033269;28;20035;-39
2023/05/26 09:24:18;;;;;;;13.07;3.33;;;;;;;15.44;49.46;102505.31;5047822;28;20513;-39
2023/05/26 09:26:46;;;;;;;19.17;4.15;;;;;;;15.43;48.94;102508.94;5045732;28;20473;-39
2023/05/26 09:29:12;;;;;;;19.27;4.45;;;;;;;15.42;49.19;102508.06;5066966;28;20453;-39
2023/05/26 09:31:43;;;;;;;21.00;4.00;;;;;;;15.48;49.40;102499.81;5060179;28;20526;-39
2023/05/26 09:34:10;;;;;;;22.77;4.78;;;;;;;15.54;49.55;102502.13;5066356;28;20045;-39
2023/05/26 09:36:37;;;;;;;20.75;4.32;;;;;;;15.62;49.65;102503.56;5050727;28;20500;-39
2023/05/26 09:39:05;;;;;;;15.98;4.47;;;;;;;15.64;49.83;102512.31;5032007;28;20037;-39
2023/05/26 09:41:39;;;;;;;19.67;4.50;;;;;;;15.61;49.69;102496.53;5042041;28;20090;-39
2023/05/26 09:44:16;;;;;;;21.20;3.95;;;;;;;15.65;49.17;102498.09;5033671;28;20043;-39
2023/05/26 09:46:42;;;;;;;28.60;5.93;;;;;;;15.78;49.49;102507.13;5057785;28;20035;-39
2023/05/26 09:49:14;;;;;;;24.55;4.63;;;;;;;15.87;49.32;102515.56;5073284;28;20047;-39
2023/05/26 09:51:42;;;;;;;21.23;4.87;;;;;;;15.83;48.72;102499.78;5049865;28;20031;-39
2023/05/26 09:54:12;;;;;;;26.33;3.65;;;;;;;15.88;48.85;102493.41;5068299;28;20270;-39
2023/05/26 09:56:58;;;;;;;15.82;5.10;;;;;;;15.88;48.25;102509.34;5041908;28;20473;-39
2023/05/26 09:59:38;;;;;;;15.88;4.13;;;;;;;15.95;48.62;102516.06;5062901;28;20030;-39
2023/05/26 10:02:25;;;;;;;17.08;4.45;;;;;;;15.92;48.60;102489.66;5068839;28;20435;-39
2023/05/26 10:04:52;;;;;;;16.88;3.72;;;;;;;15.97;48.92;102493.78;5049776;28;20080;-39
2023/05/26 10:07:19;;;;;;;24.40;3.45;;;;;;;16.08;48.33;102509.16;5053349;28;20124;-39
2023/05/26 10:09:51;;;;;;;18.60;3.70;;;;;;;16.14;47.81;102500.84;5055041;28;20032;-39
2023/05/26 10:12:19;;;;;;;18.73;3.70;;;;;;;16.17;47.84;102498.97;5048220;28;20394;-39
2023/05/26 10:14:45;;;;;;;18.40;3.33;;;;;;;16.19;47.99;102487.31;5043357;28;20478;-39
2023/05/26 10:17:11;;;;;;;18.58;3.13;;;;;;;16.25;47.97;102491.47;5035724;28;20047;-39
2023/05/26 10:19:36;;;;;;;17.40;3.08;;;;;;;16.25;47.95;102488.81;5067385;28;20100;-39
2023/05/26 10:22:10;;;;;;;20.10;3.70;;;;;;;16.25;46.82;102491.47;5035865;28;20032;-39
2023/05/26 10:24:44;;;;;;;22.25;3.75;;;;;;;16.25;47.57;102473.72;5031270;28;20039;-40
2023/05/26 10:27:34;;;;;;;16.33;3.47;;;;;;;16.44;47.84;102478.03;5058796;28;20016;-40
2023/05/26 10:30:08;;;;;;;14.90;3.35;;;;;;;16.60;47.50;102480.69;5068551;28;20362;-41
2023/05/26 10:32:56;;;;;;;11.40;4.50;;;;;;;16.65;46.75;102480.41;5064106;28;20020;-40
2023/05/26 10:35:30;;;;;;;20.48;3.90;;;;;;;16.71;47.45;102475.59;5069762;28;20043;-41
2023/05/26 10:38:02;;;;;;;24.52;4.45;;;;;;;16.79;47.18;102479.66;5050933;28;20032;-40
2023/05/26 10:40:27;;;;;;;15.82;3.92;;;;;;;16.78;47.13;102489.44;5070350;28;20078;-41
2023/05/26 10:43:02;;;;;;;30.58;6.82;;;;;;;16.79;46.52;102482.31;5077376;28;20134;-41
2023/05/26 10:45:32;;;;;;;16.50;4.32;;;;;;;16.83;46.90;102482.03;5063710;28;20032;-40
2023/05/26 10:48:05;;;;;;;24.35;4.72;;;;;;;16.85;46.83;102472.19;5071756;28;20487;-41
2023/05/26 10:51:16;;;;;;;16.92;3.60;;;;;;;16.95;46.73;102492.94;5036275;28;20069;-40
2023/05/26 10:53:43;;;;;;;8.73;2.38;;;;;;;16.98;46.92;102490.13;4953341;28;20496;-41
2023/05/26 10:56:12;;;;;;;17.55;3.85;;;;;;;17.00;47.12;102478.47;4953227;28;20054;-40
2023/05/26 10:58:41;;;;;;;14.70;3.80;;;;;;;17.03;46.74;102491.56;5018938;28;20056;-41
2023/05/26 11:01:16;;;;;;;18.02;4.00;;;;;;;17.08;46.57;102482.47;5053441;28;20421;-40
2023/05/26 11:04:01;;;;;;;17.50;3.95;;;;;;;17.15;46.13;102486.50;5055796;28;20028;-41
2023/05/26 11:06:42;;;;;;;15.75;3.63;;;;;;;17.17;45.37;102482.81;5067062;28;20024;-41
2023/05/26 11:09:10;;;;;;;17.00;3.75;;;;;;;17.27;46.37;102485.78;5049750;28;20073;-40
2023/05/26 11:11:38;;;;;;;24.27;4.00;;;;;;;17.32;46.24;102478.38;5048847;28;20158;-41
2023/05/26 11:14:12;;;;;;;21.80;3.38;;;;;;;17.41;46.10;102476.97;5064131;28;20020;-40
2023/05/26 11:16:40;;;;;;;14.77;4.18;;;;;;;17.45;46.06;102478.50;5067047;28;20036;-42
2023/05/26 11:19:07;;;;;;;14.10;4.05;;;;;;;17.47;45.09;102486.41;5053020;28;22460;-41
2023/05/26 11:21:35;;;;;;;15.45;3.78;;;;;;;17.44;44.99;102487.44;5056364;28;20028;-41